Time;durP1;ratioP1;P1;durP2;ratioP2;P2;SDS_P1;SDS_P2;PMS_P1;PMS_P2;Temp;Humidity;BMP_temperature;BMP_pressure;BME280_temperature;BME280_humidity;BME280_pressure;Samples;Min_cycle;Max_cycle;Signal;HPM_P1;HPM_P2
2023/09/02 00:01:18;;;;;;;4.47;4.07;;;20.60;1.00;;;;;;6275316;22;20452;-75
2023/09/02 00:03:44;;;;;;;6.45;4.03;;;20.60;1.00;;;;;;6248163;22;20067;-75
2023/09/02 00:06:10;;;;;;;6.63;4.00;;;20.60;1.00;;;;;;6275193;22;20008;-75
2023/09/02 00:08:35;;;;;;;7.95;4.47;;;20.60;1.00;;;;;;6274710;22;20061;-75
2023/09/02 00:11:01;;;;;;;8.20;4.28;;;20.60;1.00;;;;;;6275365;22;20423;-75
2023/09/02 00:13:27;;;;;;;5.22;3.65;;;20.50;1.00;;;;;;6275392;22;19995;-75
2023/09/02 00:15:52;;;;;;;5.43;4.25;;;20.50;1.00;;;;;;6275001;22;20403;-75
2023/09/02 00:18:18;;;;;;;4.68;4.28;;;20.50;1.00;;;;;;6275229;22;20010;-75
2023/09/02 00:20:44;;;;;;;6.15;4.07;;;20.50;1.00;;;;;;6274933;22;20118;-75
2023/09/02 00:23:10;;;;;;;5.88;4.38;;;20.50;1.00;;;;;;6275308;22;20003;-75
2023/09/02 00:25:36;;;;;;;5.07;4.07;;;20.40;1.00;;;;;;6274856;22;20003;-75
2023/09/02 00:28:02;;;;;;;5.35;4.85;;;20.40;1.00;;;;;;6275125;22;20419;-75
2023/09/02 00:30:27;;;;;;;5.00;4.10;;;20.40;1.00;;;;;;6275136;22;20334;-75
2023/09/02 00:32:53;;;;;;;6.88;4.90;;;20.40;1.00;;;;;;6247773;22;20477;-75
2023/09/02 00:35:19;;;;;;;5.07;4.57;;;20.30;1.00;;;;;;6274976;22;20454;-74
2023/09/02 00:37:44;;;;;;;5.00;4.45;;;20.30;1.00;;;;;;6274783;22;20006;-75
2023/09/02 00:40:13;;;;;;;5.15;4.22;;;20.20;1.00;;;;;;6274894;22;20059;-75
2023/09/02 00:42:40;;;;;;;8.88;4.85;;;20.20;1.00;;;;;;6274844;22;20003;-75
2023/09/02 00:45:06;;;;;;;8.27;4.80;;;20.20;1.00;;;;;;6274952;22;20074;-75
2023/09/02 00:47:32;;;;;;;6.90;4.70;;;20.20;1.00;;;;;;6247517;22;20011;-75
2023/09/02 00:50:00;;;;;;;5.82;4.75;;;20.20;1.00;;;;;;6247463;22;20008;-75
2023/09/02 00:52:25;;;;;;;7.05;4.20;;;20.20;1.00;;;;;;6274292;22;20031;-75
2023/09/02 00:54:51;;;;;;;4.47;3.92;;;20.20;1.00;;;;;;6274006;22;20007;-77
2023/09/02 00:57:17;;;;;;;6.63;4.53;;;20.20;1.00;;;;;;6274422;22;19999;-77
2023/09/02 00:59:43;;;;;;;7.45;4.85;;;20.10;1.00;;;;;;6274380;22;19999;-78
2023/09/02 01:02:09;;;;;;;4.78;4.18;;;20.10;1.00;;;;;;6247372;22;20006;-77
2023/09/02 01:04:35;;;;;;;8.75;4.35;;;20.20;1.00;;;;;;6274799;22;20000;-77
2023/09/02 01:07:02;;;;;;;6.70;4.75;;;20.20;1.00;;;;;;6274781;22;20019;-78
2023/09/02 01:09:30;;;;;;;10.43;4.88;;;20.20;1.00;;;;;;6274757;22;20000;-77
2023/09/02 01:11:56;;;;;;;4.97;4.38;;;20.10;1.00;;;;;;6274309;22;20026;-77
2023/09/02 01:14:22;;;;;;;5.45;4.07;;;20.10;1.00;;;;;;6274565;22;20419;-77
2023/09/02 01:16:48;;;;;;;5.95;4.80;;;20.10;1.00;;;;;;6274689;22;20000;-77
2023/09/02 01:19:17;;;;;;;6.97;5.28;;;20.10;1.00;;;;;;6274750;22;20007;-77
2023/09/02 01:22:35;;;;;;;8.05;4.65;;;20.10;1.00;;;;;;6247426;22;20010;-77
2023/09/02 01:25:07;;;;;;;6.82;4.53;;;20.00;1.00;;;;;;6097243;23;20009;-77
2023/09/02 01:27:49;;;;;;;4.68;4.30;;;20.00;1.00;;;;;;6121604;23;20017;-77
2023/09/02 01:30:19;;;;;;;;;;;20.00;1.00;;;;;;6216956;22;20015;-78
2023/09/02 01:32:50;;;;;;;6.32;5.10;;;20.00;1.00;;;;;;6274355;22;20315;-77
2023/09/02 01:35:19;;;;;;;8.77;5.68;;;19.90;1.00;;;;;;6274326;22;20004;-78
2023/09/02 01:37:48;;;;;;;5.20;4.57;;;19.90;1.00;;;;;;6247100;22;20007;-77
2023/09/02 01:40:25;;;;;;;7.38;4.85;;;19.90;1.00;;;;;;6247393;22;20007;-77
2023/09/02 01:42:56;;;;;;;6.43;5.30;;;19.90;1.00;;;;;;6274640;22;20328;-77
2023/09/02 01:45:33;;;;;;;7.07;4.78;;;19.90;1.00;;;;;;6274371;22;20134;-77
2023/09/02 01:47:59;;;;;;;9.70;5.00;;;19.90;1.00;;;;;;6274747;22;20027;-77
2023/09/02 01:50:28;;;;;;;5.03;4.50;;;19.80;1.00;;;;;;6274372;22;20011;-77
2023/09/02 01:52:56;;;;;;;7.43;5.20;;;19.80;1.00;;;;;;6247643;22;20007;-77
2023/09/02 01:55:22;;;;;;;5.70;5.10;;;19.80;1.00;;;;;;6274020;22;20058;-77
2023/09/02 01:57:49;;;;;;;6.07;5.50;;;19.80;1.00;;;;;;6271037;22;20003;-77
2023/09/02 02:00:15;;;;;;;6.35;4.57;;;19.90;1.00;;;;;;6244935;22;20006;-77
2023/09/02 02:02:42;;;;;;;5.32;4.85;;;19.90;1.00;;;;;;6274426;22;19996;-78
2023/09/02 02:05:12;;;;;;;7.57;5.20;;;19.80;1.00;;;;;;6247370;22;20004;-77
2023/09/02 02:07:41;;;;;;;10.05;5.40;;;19.90;1.00;;;;;;6249370;22;20394;-78
2023/09/02 02:10:15;;;;;;;7.28;5.25;;;19.90;1.00;;;;;;6275720;22;20718;-77
2023/09/02 02:12:42;;;;;;;7.30;4.53;;;19.90;1.00;;;;;;6275558;22;20082;-77
2023/09/02 02:15:12;;;;;;;9.75;5.28;;;19.90;1.00;;;;;;6247944;22;20004;-78
2023/09/02 02:17:41;;;;;;;8.60;4.90;;;19.90;1.00;;;;;;6276139;22;20000;-77
2023/09/02 02:20:11;;;;;;;7.43;5.50;;;19.90;1.00;;;;;;6276088;22;19999;-77
2023/09/02 02:22:37;;;;;;;8.40;5.20;;;19.90;1.00;;;;;;6276015;22;20000;-77
2023/09/02 02:25:03;;;;;;;7.28;4.65;;;19.90;1.00;;;;;;6275074;22;20006;-77
2023/09/02 02:27:29;;;;;;;5.28;4.88;;;19.90;1.00;;;;;;6276477;22;20010;-77
2023/09/02 02:29:57;;;;;;;7.82;4.72;;;19.90;1.00;;;;;;6248977;22;20008;-77
2023/09/02 02:32:26;;;;;;;7.97;5.13;;;19.80;1.00;;;;;;6276449;22;20007;-77
2023/09/02 02:34:53;;;;;;;6.90;5.13;;;19.80;1.00;;;;;;6276244;22;20446;-77
2023/09/02 02:37:19;;;;;;;7.07;4.95;;;19.80;1.00;;;;;;6276187;22;20025;-77
2023/09/02 02:39:48;;;;;;;5.68;5.18;;;19.80;1.00;;;;;;6275780;22;20003;-77
2023/09/02 02:42:15;;;;;;;6.70;5.60;;;19.80;1.00;;;;;;6276151;22;19999;-78
2023/09/02 02:44:40;;;;;;;12.13;5.47;;;19.80;1.00;;;;;;6275996;22;20524;-78
2023/09/02 02:47:06;;;;;;;5.72;5.13;;;19.80;1.00;;;;;;6275625;22;20000;-77
2023/09/02 02:49:32;;;;;;;6.30;5.65;;;19.80;1.00;;;;;;6275917;22;20007;-77
2023/09/02 02:52:01;;;;;;;8.18;5.53;;;19.80;1.00;;;;;;6276042;22;20000;-77
2023/09/02 02:54:27;;;;;;;7.25;5.88;;;19.80;1.00;;;;;;6275813;22;20026;-77
2023/09/02 02:56:52;;;;;;;9.10;5.88;;;19.70;1.00;;;;;;6275928;22;20012;-77
2023/09/02 02:59:18;;;;;;;6.25;5.38;;;19.80;1.00;;;;;;6248618;22;20007;-77
2023/09/02 03:01:44;;;;;;;8.73;5.82;;;19.70;1.00;;;;;;6275989;22;20390;-77
2023/09/02 03:04:09;;;;;;;8.95;5.75;;;19.70;1.00;;;;;;6275585;22;20050;-77
2023/09/02 03:06:35;;;;;;;11.40;6.28;;;19.70;1.00;;;;;;6275867;22;20016;-77
2023/09/02 03:09:02;;;;;;;6.28;5.75;;;19.70;1.00;;;;;;6275697;22;20003;-77
2023/09/02 03:11:28;;;;;;;6.13;5.28;;;19.70;1.00;;;;;;6275178;22;20058;-77
2023/09/02 03:13:55;;;;;;;7.88;5.88;;;19.60;1.10;;;;;;6275532;22;20011;-77
2023/09/02 03:16:21;;;;;;;7.38;6.07;;;19.70;1.20;;;;;;6275674;22;20031;-77
2023/09/02 03:18:47;;;;;;;12.10;5.57;;;19.70;1.00;;;;;;6275551;22;19999;-77
2023/09/02 03:21:13;;;;;;;7.25;5.82;;;19.70;1.00;;;;;;6274624;22;20007;-77
2023/09/02 03:23:38;;;;;;;8.32;6.10;;;19.70;1.00;;;;;;6275812;22;20382;-77
2023/09/02 03:26:12;;;;;;;8.80;5.53;;;19.70;1.00;;;;;;6275814;22;20000;-77
2023/09/02 03:28:37;;;;;;;9.38;5.75;;;19.70;1.00;;;;;;6275443;22;20009;-77
2023/09/02 03:31:04;;;;;;;10.88;6.32;;;19.70;1.00;;;;;;6274532;22;20004;-75
2023/09/02 03:33:30;;;;;;;7.75;5.95;;;19.70;1.00;;;;;;6275591;22;20332;-75
2023/09/02 03:35:56;;;;;;;15.35;6.03;;;19.70;1.00;;;;;;6275290;22;20003;-75
2023/09/02 03:38:22;;;;;;;7.80;6.10;;;19.70;1.00;;;;;;6248266;22;20007;-75
2023/09/02 03:40:47;;;;;;;10.05;5.90;;;19.70;1.00;;;;;;6275350;22;20071;-75
2023/09/02 03:43:13;;;;;;;11.55;6.00;;;19.70;1.00;;;;;;6272934;22;20007;-75
2023/09/02 03:45:38;;;;;;;7.57;5.85;;;19.70;1.00;;;;;;6274555;22;19999;-75
2023/09/02 03:48:04;;;;;;;7.25;5.95;;;19.60;1.00;;;;;;6273835;22;20443;-75
2023/09/02 03:50:30;;;;;;;7.57;5.80;;;19.70;1.00;;;;;;6274430;22;20007;-75
2023/09/02 03:52:56;;;;;;;10.63;6.50;;;19.60;2.30;;;;;;6274296;22;20000;-75
2023/09/02 03:55:22;;;;;;;6.72;6.07;;;19.60;4.50;;;;;;6274656;22;20010;-75
2023/09/02 03:57:47;;;;;;;8.68;6.10;;;19.50;4.90;;;;;;6274621;22;20247;-75
2023/09/02 04:00:16;;;;;;;8.95;6.47;;;19.50;4.60;;;;;;6274463;22;20006;-75
2023/09/02 04:02:42;;;;;;;7.05;6.03;;;19.50;4.70;;;;;;6246989;22;20362;-75
2023/09/02 04:05:07;;;;;;;9.93;6.72;;;19.50;6.50;;;;;;6273592;22;19999;-76
2023/09/02 04:07:34;;;;;;;7.00;5.85;;;19.50;6.40;;;;;;6273358;22;20012;-75
2023/09/02 04:09:59;;;;;;;9.00;6.18;;;19.50;4.90;;;;;;6274479;22;20184;-76
2023/09/02 04:12:25;;;;;;;9.23;5.85;;;19.50;6.40;;;;;;6274296;22;20419;-75
2023/09/02 04:14:51;;;;;;;9.43;5.80;;;19.50;8.70;;;;;;6274260;22;20316;-75
2023/09/02 04:17:16;;;;;;;8.07;6.30;;;19.50;7.60;;;;;;6274252;22;20335;-75
2023/09/02 04:19:42;;;;;;;5.90;5.28;;;19.50;7.80;;;;;;6274577;22;19996;-75
2023/09/02 04:22:08;;;;;;;7.45;6.18;;;19.50;8.60;;;;;;6248161;22;20328;-76
2023/09/02 04:24:33;;;;;;;6.72;5.82;;;19.50;6.20;;;;;;6248035;22;20004;-76
2023/09/02 04:27:00;;;;;;;9.90;5.90;;;19.50;7.70;;;;;;6275135;22;20004;-75
2023/09/02 04:29:25;;;;;;;9.27;6.43;;;19.50;7.90;;;;;;6274742;22;20004;-76
2023/09/02 04:31:52;;;;;;;8.93;5.93;;;19.50;4.30;;;;;;6275056;22;20004;-76
2023/09/02 04:34:19;;;;;;;12.20;6.55;;;19.50;5.90;;;;;;6274843;22;20008;-75
2023/09/02 04:36:45;;;;;;;8.98;6.10;;;19.50;5.20;;;;;;6274886;22;20010;-76
2023/09/02 04:39:10;;;;;;;8.30;5.90;;;19.60;5.40;;;;;;6275048;22;20031;-76
2023/09/02 04:41:37;;;;;;;7.15;6.22;;;19.50;5.00;;;;;;6274756;22;19995;-76
2023/09/02 04:44:02;;;;;;;7.88;6.05;;;19.50;7.90;;;;;;6247748;22;20031;-75
2023/09/02 04:46:28;;;;;;;8.35;5.80;;;19.60;5.70;;;;;;6247405;22;20006;-75
2023/09/02 04:48:54;;;;;;;9.90;6.65;;;19.50;8.40;;;;;;6275028;22;20003;-75
2023/09/02 04:51:19;;;;;;;6.90;6.22;;;19.60;7.60;;;;;;6274665;22;20007;-76
2023/09/02 04:53:45;;;;;;;7.25;6.50;;;19.50;5.70;;;;;;6275012;22;20000;-75
2023/09/02 04:56:11;;;;;;;9.40;6.35;;;19.50;6.70;;;;;;6274889;22;20003;-76
2023/09/02 04:58:37;;;;;;;8.05;5.82;;;19.50;6.90;;;;;;6274515;22;20011;-76
2023/09/02 05:01:10;;;;;;;6.93;6.30;;;19.50;4.60;;;;;;6274717;22;19996;-76
2023/09/02 05:03:36;;;;;;;8.55;6.70;;;19.60;4.90;;;;;;6274745;22;20004;-75
2023/09/02 05:06:02;;;;;;;7.55;6.60;;;19.60;5.80;;;;;;6274440;22;20406;-76
2023/09/02 05:08:32;;;;;;;7.18;6.30;;;19.60;7.60;;;;;;6247522;22;20085;-76
2023/09/02 05:10:58;;;;;;;13.20;6.63;;;19.60;5.00;;;;;;6247355;22;20442;-76
2023/09/02 05:13:23;;;;;;;9.85;6.60;;;19.60;4.50;;;;;;6274704;22;19996;-76
2023/09/02 05:15:50;;;;;;;11.73;6.78;;;19.60;4.50;;;;;;6274534;22;20644;-75
2023/09/02 05:18:16;;;;;;;7.65;6.63;;;19.60;3.20;;;;;;6274610;22;20000;-76
2023/09/02 05:20:41;;;;;;;12.40;6.75;;;19.60;2.40;;;;;;6274341;22;19995;-75
2023/09/02 05:23:07;;;;;;;7.10;6.47;;;19.60;2.60;;;;;;6247464;22;20053;-75
2023/09/02 05:25:33;;;;;;;6.55;5.95;;;19.70;2.00;;;;;;6274428;22;20129;-76
2023/09/02 05:27:58;;;;;;;7.18;6.53;;;19.70;3.90;;;;;;6274449;22;20065;-76
2023/09/02 05:30:24;;;;;;;9.55;6.40;;;19.70;1.00;;;;;;6274691;22;20004;-75
2023/09/02 05:32:50;;;;;;;10.15;6.00;;;19.70;1.00;;;;;;6247189;22;20485;-75
2023/09/02 05:35:15;;;;;;;12.30;6.80;;;19.70;1.00;;;;;;6274687;22;19999;-76
2023/09/02 05:37:41;;;;;;;7.93;6.82;;;19.80;1.00;;;;;;6274282;22;20007;-76
2023/09/02 05:40:08;;;;;;;10.20;6.50;;;19.80;1.00;;;;;;6274139;22;20073;-75
2023/09/02 05:42:33;;;;;;;11.73;7.25;;;19.90;1.00;;;;;;6274550;22;20093;-75
2023/09/02 05:44:59;;;;;;;12.85;7.40;;;19.90;1.00;;;;;;6274449;22;19996;-75
2023/09/02 05:47:25;;;;;;;12.38;7.00;;;19.90;1.00;;;;;;6274312;22;20003;-76
2023/09/02 05:49:51;;;;;;;12.27;7.95;;;20.00;1.00;;;;;;6274317;22;20003;-75
2023/09/02 05:52:16;;;;;;;12.40;7.07;;;20.00;1.00;;;;;;6274478;22;20459;-75
2023/09/02 05:54:42;;;;;;;8.77;6.90;;;20.00;1.00;;;;;;6274374;22;20003;-75
2023/09/02 05:57:08;;;;;;;13.15;6.85;;;20.10;1.00;;;;;;6274428;22;20004;-75
2023/09/02 05:59:33;;;;;;;9.73;6.10;;;20.20;1.00;;;;;;6274404;22;20003;-76
2023/09/02 06:01:59;;;;;;;15.23;7.47;;;20.30;1.00;;;;;;6274190;22;20071;-76
2023/09/02 06:04:25;;;;;;;7.35;6.05;;;20.30;1.00;;;;;;6274630;22;20315;-76
2023/09/02 06:06:50;;;;;;;10.50;6.35;;;20.30;1.00;;;;;;6274076;22;20012;-75
2023/09/02 06:09:16;;;;;;;8.90;6.88;;;20.40;1.00;;;;;;6247404;22;20090;-75
2023/09/02 06:11:42;;;;;;;8.73;6.20;;;20.50;1.00;;;;;;6273888;22;20004;-75
2023/09/02 06:14:08;;;;;;;12.32;7.00;;;20.50;1.00;;;;;;6274281;22;20450;-75
2023/09/02 06:16:34;;;;;;;13.75;6.72;;;20.50;1.00;;;;;;6274266;22;19999;-76
2023/09/02 06:19:00;;;;;;;6.47;5.88;;;20.60;1.00;;;;;;6274314;22;20071;-76
2023/09/02 06:21:25;;;;;;;7.32;6.55;;;20.60;1.00;;;;;;6247038;22;20034;-75
2023/09/02 06:23:51;;;;;;;9.88;6.10;;;20.60;1.00;;;;;;6274078;22;20391;-76
2023/09/02 06:26:17;;;;;;;13.00;6.55;;;20.60;1.00;;;;;;6274316;22;20075;-76
2023/09/02 06:28:43;;;;;;;6.43;5.82;;;20.70;1.00;;;;;;6274533;22;20002;-78
2023/09/02 06:31:10;;;;;;;11.05;6.13;;;20.70;1.00;;;;;;6274227;22;19996;-78
2023/09/02 06:33:35;;;;;;;7.43;6.07;;;20.70;1.00;;;;;;6247271;22;20142;-77
2023/09/02 06:36:11;;;;;;;10.07;6.47;;;20.80;1.00;;;;;;6274461;22;20031;-78
2023/09/02 06:38:37;;;;;;;8.63;6.43;;;20.90;1.00;;;;;;6274332;22;20012;-78
2023/09/02 06:41:10;;;;;;;9.07;6.07;;;21.00;1.00;;;;;;6247246;22;20444;-78
2023/09/02 06:43:36;;;;;;;6.47;5.85;;;21.00;1.00;;;;;;6246868;22;20327;-77
2023/09/02 06:46:09;;;;;;;8.10;5.53;;;21.10;1.00;;;;;;6274392;22;20454;-78
2023/09/02 06:48:35;;;;;;;9.23;5.93;;;21.10;1.00;;;;;;6274102;22;20083;-77
2023/09/02 06:51:01;;;;;;;7.43;5.22;;;21.10;1.00;;;;;;6247021;22;20569;-77
2023/09/02 06:53:27;;;;;;;9.30;5.55;;;21.20;1.00;;;;;;6275348;22;20023;-77
2023/09/02 06:55:52;;;;;;;5.88;5.38;;;21.20;1.00;;;;;;6249141;22;20007;-77
2023/09/02 06:58:18;;;;;;;7.03;4.95;;;21.30;1.00;;;;;;6275837;22;20007;-77
2023/09/02 07:00:44;;;;;;;9.38;5.28;;;21.30;1.00;;;;;;6248762;22;20083;-77
2023/09/02 07:03:09;;;;;;;5.80;4.90;;;21.40;1.00;;;;;;6276209;22;20005;-77
2023/09/02 07:05:35;;;;;;;6.45;5.25;;;21.40;1.00;;;;;;6240771;23;20326;-78
2023/09/02 07:08:02;;;;;;;6.55;5.82;;;21.40;1.00;;;;;;6245318;23;20008;-78
2023/09/02 07:10:27;;;;;;;6.15;5.22;;;21.50;1.00;;;;;;6245121;23;20008;-78
2023/09/02 07:12:53;;;;;;;8.07;5.07;;;21.50;1.00;;;;;;6218207;23;20501;-78
2023/09/02 07:15:19;;;;;;;9.65;5.38;;;21.60;1.00;;;;;;6245033;23;20011;-78
2023/09/02 07:17:46;;;;;;;8.38;6.07;;;21.60;8.40;;;;;;6218134;23;20031;-78
2023/09/02 07:20:13;;;;;;;5.68;5.18;;;21.70;15.10;;;;;;6244847;23;20006;-78
2023/09/02 07:22:38;;;;;;;8.48;6.43;;;21.80;14.10;;;;;;6244917;23;20031;-78
2023/09/02 07:25:06;;;;;;;10.07;5.88;;;21.90;5.00;;;;;;6218243;23;20000;-78
2023/09/02 07:27:33;;;;;;;9.00;6.70;;;21.90;1.00;;;;;;6245116;23;20000;-78
2023/09/02 07:30:01;;;;;;;14.05;5.72;;;21.90;1.00;;;;;;6245027;23;20004;-78
2023/09/02 07:32:27;;;;;;;7.75;5.70;;;22.00;1.00;;;;;;6245223;23;20010;-78
2023/09/02 07:34:53;;;;;;;7.53;5.53;;;22.00;1.00;;;;;;6245152;23;20007;-78
2023/09/02 07:37:18;;;;;;;9.05;5.80;;;22.00;1.00;;;;;;6242958;23;20000;-78
2023/09/02 07:39:44;;;;;;;6.53;5.53;;;22.00;1.00;;;;;;6245741;23;20015;-78
2023/09/02 07:42:10;;;;;;;8.93;5.60;;;22.00;1.00;;;;;;6217270;23;20004;-78
2023/09/02 07:44:35;;;;;;;10.15;6.00;;;22.10;1.00;;;;;;6216891;23;20428;-78
2023/09/02 07:47:01;;;;;;;9.77;5.28;;;22.10;1.00;;;;;;6244158;23;20475;-78
2023/09/02 07:49:27;;;;;;;11.88;7.32;;;22.10;1.00;;;;;;6216979;23;20008;-77
2023/09/02 07:51:52;;;;;;;8.57;6.47;;;22.10;1.00;;;;;;6218282;23;20058;-78
2023/09/02 07:54:18;;;;;;;13.30;7.05;;;22.10;1.00;;;;;;6244480;23;20006;-78
2023/09/02 07:56:44;;;;;;;8.75;7.20;;;22.10;1.00;;;;;;6244673;23;20012;-78
2023/09/02 07:59:09;;;;;;;14.48;7.10;;;22.20;1.00;;;;;;6244703;23;20007;-78
2023/09/02 08:01:35;;;;;;;8.35;6.50;;;22.20;1.00;;;;;;6244665;23;20015;-78
2023/09/02 08:04:01;;;;;;;9.10;7.07;;;22.30;1.20;;;;;;6217500;23;20004;-78
2023/09/02 08:06:26;;;;;;;10.40;6.47;;;22.40;4.90;;;;;;6262716;22;20459;-78
2023/09/02 08:08:53;;;;;;;8.23;6.95;;;22.50;1.00;;;;;;6275040;22;20022;-78
2023/09/02 08:11:19;;;;;;;8.75;6.45;;;22.50;1.00;;;;;;6275155;22;20027;-78
2023/09/02 08:13:45;;;;;;;9.38;6.18;;;22.50;1.00;;;;;;6275128;22;20003;-78
2023/09/02 08:16:10;;;;;;;9.18;6.10;;;22.50;1.00;;;;;;6248154;22;19999;-78
2023/09/02 08:18:36;;;;;;;10.98;6.18;;;22.60;1.00;;;;;;6275330;22;20015;-78
2023/09/02 08:21:10;;;;;;;9.43;6.65;;;22.60;1.00;;;;;;6275910;22;20000;-78
2023/09/02 08:23:39;;;;;;;7.68;6.18;;;22.60;1.00;;;;;;6275648;22;19996;-78
2023/09/02 08:26:09;;;;;;;9.23;5.97;;;22.60;1.00;;;;;;6275703;22;19996;-78
2023/09/02 08:28:34;;;;;;;11.20;6.32;;;22.60;1.00;;;;;;6275660;22;19999;-78
2023/09/02 08:31:00;;;;;;;9.98;6.47;;;22.70;1.00;;;;;;6275571;22;20058;-78
2023/09/02 08:33:26;;;;;;;8.90;6.65;;;22.70;1.00;;;;;;6275693;22;20378;-78
2023/09/02 08:35:51;;;;;;;10.07;6.55;;;22.70;1.00;;;;;;6276250;22;20010;-78
2023/09/02 08:38:17;;;;;;;8.27;6.47;;;22.80;1.00;;;;;;6276000;22;20010;-78
2023/09/02 08:40:43;;;;;;;7.60;5.53;;;22.80;1.00;;;;;;6275756;22;19995;-78
2023/09/02 08:43:09;;;;;;;6.28;5.55;;;22.80;1.00;;;;;;6275241;22;19995;-78
2023/09/02 08:45:40;;;;;;;6.32;5.72;;;22.90;1.00;;;;;;6274735;22;20065;-78
2023/09/02 08:48:11;;;;;;;12.45;5.70;;;22.90;1.00;;;;;;6274926;22;20000;-78
2023/09/02 08:50:36;;;;;;;12.15;6.20;;;23.10;1.00;;;;;;6274912;22;20336;-78
2023/09/02 08:53:03;;;;;;;11.00;5.93;;;23.20;1.00;;;;;;6247686;22;20003;-78
2023/09/02 08:55:32;;;;;;;8.85;6.13;;;23.20;1.00;;;;;;6274581;22;20000;-78
2023/09/02 08:57:59;;;;;;;9.02;6.28;;;23.20;1.00;;;;;;6275122;22;20013;-78
2023/09/02 09:00:25;;;;;;;8.48;6.38;;;23.20;1.00;;;;;;6275068;22;20075;-78
2023/09/02 09:02:51;;;;;;;6.88;5.00;;;23.20;1.00;;;;;;6275338;22;20384;-78
2023/09/02 09:05:18;;;;;;;13.75;5.38;;;23.30;1.00;;;;;;6274918;22;19995;-78
2023/09/02 09:07:44;;;;;;;6.25;5.68;;;23.30;1.00;;;;;;6275274;22;20312;-78
2023/09/02 09:10:13;;;;;;;8.60;6.30;;;23.30;1.00;;;;;;6274960;22;20435;-78
2023/09/02 09:12:40;;;;;;;12.70;6.57;;;23.30;1.00;;;;;;6275233;22;20011;-78
2023/09/02 09:15:08;;;;;;;9.10;6.07;;;23.40;1.00;;;;;;6247221;22;20443;-78
2023/09/02 09:17:34;;;;;;;10.35;6.60;;;23.50;1.00;;;;;;6274951;22;20004;-78
2023/09/02 09:20:01;;;;;;;9.07;5.97;;;23.50;1.00;;;;;;6274757;22;20007;-78
2023/09/02 09:22:27;;;;;;;10.30;5.97;;;23.70;1.00;;;;;;6274901;22;20074;-78
2023/09/02 09:24:53;;;;;;;9.60;6.07;;;23.70;99.90;;;;;;6274641;22;20332;-78
2023/09/02 09:27:19;;;;;;;18.73;7.68;;;23.70;1.00;;;;;;6247544;22;20003;-78
2023/09/02 09:29:45;;;;;;;15.18;6.40;;;23.80;1.00;;;;;;6274678;22;20003;-78
2023/09/02 09:32:15;;;;;;;7.13;5.90;;;24.00;1.00;;;;;;6247476;22;20015;-78
2023/09/02 09:34:42;;;;;;;10.48;5.68;;;24.00;99.90;;;;;;6274528;22;20053;-78
2023/09/02 09:37:09;;;;;;;14.13;6.70;;;24.00;99.90;;;;;;6274670;22;20004;-78
2023/09/02 09:39:51;;;;;;;6.18;5.53;;;24.10;99.90;;;;;;6274276;22;19999;-78
2023/09/02 09:42:20;;;;;;;18.23;6.78;;;24.00;99.90;;;;;;6274782;22;19996;-78
2023/09/02 09:44:56;;;;;;;12.38;5.25;;;24.10;1.00;;;;;;6274405;22;19996;-78
2023/09/02 09:47:23;;;;;;;9.85;5.57;;;24.20;99.90;;;;;;6247504;22;20672;-78
2023/09/02 09:49:52;;;;;;;9.13;4.93;;;24.20;99.90;;;;;;6274659;22;20004;-78
2023/09/02 09:52:20;;;;;;;9.15;5.43;;;24.40;99.90;;;;;;6274511;22;20004;-78
2023/09/02 09:54:48;;;;;;;6.50;5.55;;;24.40;1.00;;;;;;6274932;22;20393;-78
2023/09/02 09:57:30;;;;;;;7.60;4.72;;;24.40;99.90;;;;;;6274694;22;20007;-78
2023/09/02 09:59:57;;;;;;;5.88;4.90;;;24.50;99.90;;;;;;6247508;22;20382;-78
2023/09/02 10:02:23;;;;;;;7.28;5.10;;;24.60;99.90;;;;;;6274594;22;20079;-78
2023/09/02 10:04:54;;;;;;;7.90;5.22;;;24.60;99.90;;;;;;6274495;22;19996;-78
2023/09/02 10:07:32;;;;;;;11.73;5.85;;;24.60;99.90;;;;;;6274639;22;20019;-78
2023/09/02 10:10:04;;;;;;;8.77;4.03;;;24.70;1.00;;;;;;6274573;22;20042;-78
2023/09/02 10:12:33;;;;;;;8.15;5.03;;;24.70;99.90;;;;;;6274860;22;20000;-78
2023/09/02 10:15:00;;;;;;;9.63;5.00;;;24.90;1.00;;;;;;6274736;22;20007;-78
2023/09/02 10:17:27;;;;;;;6.43;3.72;;;25.00;99.90;;;;;;6274032;22;20010;-78
2023/09/02 10:19:53;;;;;;;5.53;4.13;;;25.00;1.00;;;;;;6274492;22;20481;-78
2023/09/02 10:22:21;;;;;;;9.80;3.97;;;25.00;99.90;;;;;;6274491;22;19996;-78
2023/09/02 10:25:09;;;;;;;8.05;4.05;;;25.00;99.90;;;;;;6274309;22;20003;-78
2023/09/02 10:27:42;;;;;;;8.70;4.13;;;25.00;1.00;;;;;;6275967;22;20034;-78
2023/09/02 10:30:22;;;;;;;4.95;3.85;;;25.10;1.00;;;;;;6276231;22;20004;-78
2023/09/02 10:32:59;;;;;;;4.43;3.60;;;25.10;1.00;;;;;;6276483;22;20003;-78
2023/09/02 10:35:28;;;;;;;7.15;4.00;;;25.20;1.00;;;;;;6276502;22;20004;-78
2023/09/02 10:37:56;;;;;;;6.30;3.78;;;25.30;1.00;;;;;;6275954;22;20372;-78
2023/09/02 10:40:27;;;;;;;5.88;3.38;;;25.30;99.90;;;;;;6249215;22;20083;-78
2023/09/02 10:42:55;;;;;;;6.43;3.63;;;25.30;99.90;;;;;;6249385;22;20000;-78
2023/09/02 10:45:21;;;;;;;4.95;3.25;;;25.30;99.90;;;;;;6249074;22;20010;-78
2023/09/02 10:47:49;;;;;;;10.38;4.10;;;25.40;99.90;;;;;;6249159;22;20004;-78
2023/09/02 10:50:20;;;;;;;9.05;4.70;;;25.50;99.90;;;;;;6275824;22;20010;-78
2023/09/02 10:52:45;;;;;;;4.43;3.70;;;25.50;99.90;;;;;;6249167;22;20451;-78
2023/09/02 10:55:11;;;;;;;5.05;3.65;;;25.60;99.90;;;;;;6276278;22;20233;-78
2023/09/02 10:57:46;;;;;;;5.20;2.90;;;25.60;99.90;;;;;;6276093;22;20010;-78
2023/09/02 11:00:18;;;;;;;11.75;3.58;;;25.70;99.90;;;;;;6276128;22;20003;-78
2023/09/02 11:02:45;;;;;;;9.60;3.80;;;25.70;99.90;;;;;;6276068;22;20082;-78
2023/09/02 11:05:11;;;;;;;6.20;3.85;;;25.80;99.90;;;;;;6248561;22;20493;-78
2023/09/02 11:07:40;;;;;;;8.02;3.58;;;25.90;99.90;;;;;;6276086;22;20011;-78
2023/09/02 11:10:10;;;;;;;4.93;3.67;;;26.00;99.90;;;;;;6275969;22;20010;-78
2023/09/02 11:12:55;;;;;;;7.90;3.58;;;26.00;99.90;;;;;;6276049;22;20004;-78
2023/09/02 11:15:21;;;;;;;6.63;3.38;;;26.00;99.90;;;;;;6248812;22;20391;-78
2023/09/02 11:17:47;;;;;;;8.07;3.17;;;26.00;99.90;;;;;;6248645;22;20010;-78
2023/09/02 11:20:15;;;;;;;3.95;3.10;;;26.00;99.90;;;;;;6275913;22;20083;-78
2023/09/02 11:22:51;;;;;;;4.75;3.10;;;26.20;99.90;;;;;;6276009;22;19996;-78
2023/09/02 11:25:39;;;;;;;5.70;3.20;;;26.30;99.90;;;;;;6275724;22;20006;-78
2023/09/02 11:28:29;;;;;;;4.90;2.88;;;26.30;88.30;;;;;;6248555;22;20003;-78
2023/09/02 11:31:16;;;;;;;4.85;2.45;;;26.40;44.70;;;;;;6229673;22;20378;-78
2023/09/02 11:33:47;;;;;;;3.30;3.00;;;26.50;5.90;;;;;;6275907;22;20003;-78
2023/09/02 11:36:15;;;;;;;5.25;3.15;;;26.60;1.00;;;;;;6275913;22;20061;-78
2023/09/02 11:38:40;;;;;;;3.40;2.90;;;26.50;1.00;;;;;;6274889;22;20382;-78
2023/09/02 11:41:07;;;;;;;4.70;3.05;;;26.50;1.00;;;;;;6275331;22;20000;-78
2023/09/02 11:43:34;;;;;;;3.30;2.97;;;26.40;1.00;;;;;;6275568;22;19992;-78
2023/09/02 11:46:01;;;;;;;4.78;3.15;;;26.50;1.00;;;;;;6275623;22;20134;-78
2023/09/02 11:48:28;;;;;;;3.72;3.30;;;26.60;20.90;;;;;;6275501;22;20004;-78
2023/09/02 11:50:58;;;;;;;7.32;3.33;;;26.80;1.00;;;;;;6275559;22;20063;-78
2023/09/02 11:53:33;;;;;;;3.60;3.30;;;26.80;1.00;;;;;;6248353;22;20447;-78
2023/09/02 11:55:59;;;;;;;6.38;3.45;;;26.70;1.00;;;;;;6275161;22;20004;-78
2023/09/02 11:58:24;;;;;;;4.43;2.92;;;26.70;1.00;;;;;;6275505;22;20496;-78
2023/09/02 12:00:50;;;;;;;5.07;3.20;;;26.70;1.00;;;;;;6248141;22;20336;-78
2023/09/02 12:03:33;;;;;;;8.50;2.85;;;26.70;1.00;;;;;;6275440;22;20007;-78
2023/09/02 12:06:01;;;;;;;3.05;2.75;;;26.80;1.00;;;;;;6255470;22;20451;-78
2023/09/02 12:08:30;;;;;;;5.15;3.20;;;26.80;1.00;;;;;;6275445;22;20007;-78
2023/09/02 12:11:00;;;;;;;3.38;3.08;;;26.90;1.00;;;;;;6275413;22;20081;-78
2023/09/02 12:13:28;;;;;;;3.70;3.40;;;27.10;1.00;;;;;;6275334;22;19999;-78
2023/09/02 12:15:54;;;;;;;4.18;3.53;;;27.10;1.00;;;;;;6273989;22;20015;-78
2023/09/02 12:18:21;;;;;;;5.15;3.40;;;27.00;1.00;;;;;;6275145;22;20003;-78
2023/09/02 12:20:47;;;;;;;6.07;3.17;;;27.10;1.00;;;;;;6275075;22;20074;-78
2023/09/02 12:23:13;;;;;;;5.28;3.70;;;27.10;1.00;;;;;;6273795;22;20344;-78
2023/09/02 12:25:40;;;;;;;3.83;3.30;;;27.20;1.00;;;;;;6275298;22;20073;-78
2023/09/02 12:28:11;;;;;;;4.20;2.92;;;27.30;1.00;;;;;;6275291;22;20004;-78
2023/09/02 12:30:37;;;;;;;5.40;3.60;;;27.30;1.00;;;;;;6275190;22;20031;-78
2023/09/02 12:33:04;;;;;;;6.30;3.38;;;27.40;1.00;;;;;;6274978;22;20000;-78
2023/09/02 12:35:29;;;;;;;11.65;3.85;;;27.50;1.00;;;;;;6275351;22;20010;-78
2023/09/02 12:38:08;;;;;;;4.57;3.50;;;27.50;1.00;;;;;;6275207;22;20392;-78
2023/09/02 12:40:34;;;;;;;6.03;3.55;;;27.60;1.00;;;;;;6275149;22;20019;-78
2023/09/02 12:43:00;;;;;;;6.70;3.33;;;27.60;1.00;;;;;;6275248;22;20450;-78
2023/09/02 12:45:40;;;;;;;3.72;3.40;;;27.60;1.00;;;;;;6274639;22;20002;-78
2023/09/02 12:48:07;;;;;;;7.70;4.15;;;27.60;1.00;;;;;;6275089;22;20470;-78
2023/09/02 12:50:34;;;;;;;3.53;3.17;;;27.70;1.00;;;;;;6274960;22;20458;-78
2023/09/02 12:53:04;;;;;;;5.28;3.10;;;27.90;1.00;;;;;;6274957;22;20035;-78
2023/09/02 12:55:30;;;;;;;3.63;3.30;;;27.90;99.90;;;;;;6273174;22;20463;-78